createdAt,value
2019-03-30T00:02:04.858Z,6.46
2019-03-30T00:04:33.309Z,6.42
2019-03-30T00:07:01.623Z,6.38
2019-03-30T00:09:30.654Z,6.36
2019-03-30T00:11:58.979Z,6.34
2019-03-30T00:14:27.389Z,6.30
2019-03-30T00:16:56.000Z,6.27
2019-03-30T00:19:34.808Z,6.26
2019-03-30T00:21:54.789Z,6.22
2019-03-30T00:24:23.256Z,6.18
2019-03-30T00:26:51.679Z,6.15
2019-03-30T00:29:20.172Z,6.12
2019-03-30T00:31:48.580Z,6.08
2019-03-30T00:34:17.043Z,6.05
2019-03-30T00:36:45.349Z,6.02
2019-03-30T00:39:13.801Z,5.98
2019-03-30T00:41:42.190Z,5.97
2019-03-30T00:44:10.687Z,5.95
2019-03-30T00:46:39.112Z,5.93
2019-03-30T00:49:07.525Z,5.90
2019-03-30T00:51:35.948Z,5.89
2019-03-30T00:54:04.468Z,6.15
2019-03-30T00:56:35.333Z,7.08
2019-03-30T00:59:04.307Z,8.02
2019-03-30T01:01:32.740Z,8.09
2019-03-30T01:04:01.306Z,7.68
2019-03-30T01:06:29.824Z,7.24
2019-03-30T01:08:58.198Z,6.94
2019-03-30T01:11:26.510Z,6.75
2019-03-30T01:13:55.857Z,6.56
2019-03-30T01:16:24.350Z,6.44
2019-03-30T01:18:53.413Z,6.37
2019-03-30T01:21:22.053Z,6.27
2019-03-30T01:23:51.145Z,6.18
2019-03-30T01:26:21.522Z,6.09
2019-03-30T01:28:49.886Z,6.00
2019-03-30T01:31:18.379Z,6.00
2019-03-30T01:33:47.277Z,5.97
2019-03-30T01:36:15.714Z,5.87
2019-03-30T01:38:44.018Z,5.81
2019-03-30T01:41:12.590Z,5.76
2019-03-30T01:43:41.098Z,5.71
2019-03-30T01:46:10.856Z,5.69
2019-03-30T01:48:39.175Z,5.68
2019-03-30T01:51:07.739Z,5.68
2019-03-30T01:53:36.208Z,5.65
2019-03-30T01:56:04.879Z,5.60
2019-03-30T01:58:44.716Z,5.51
2019-03-30T02:01:13.515Z,5.39
2019-03-30T02:03:42.512Z,5.42
2019-03-30T02:06:11.180Z,5.44
2019-03-30T02:08:39.636Z,5.43
2019-03-30T02:11:09.308Z,5.43
2019-03-30T02:13:38.372Z,5.43
2019-03-30T02:16:06.810Z,5.41
2019-03-30T02:18:35.295Z,5.39
2019-03-30T02:21:04.733Z,5.33
2019-03-30T02:23:33.238Z,5.30
2019-03-30T02:26:01.840Z,5.27
2019-03-30T02:28:30.352Z,5.23
2019-03-30T02:30:59.001Z,5.19
2019-03-30T02:33:27.330Z,5.18
2019-03-30T02:35:55.936Z,5.20
2019-03-30T02:38:24.430Z,5.11
2019-03-30T02:40:53.669Z,5.06
2019-03-30T02:43:22.096Z,5.06
2019-03-30T02:45:50.585Z,5.07
2019-03-30T02:48:18.875Z,5.06
2019-03-30T02:50:50.527Z,5.05
2019-03-30T02:53:17.828Z,5.03
2019-03-30T02:55:46.531Z,5.01
2019-03-30T02:58:14.931Z,4.98
2019-03-30T03:00:43.498Z,4.94
2019-03-30T03:03:11.948Z,4.85
2019-03-30T03:05:41.450Z,4.82
2019-03-30T03:08:09.911Z,4.82
2019-03-30T03:10:39.186Z,4.80
2019-03-30T03:13:07.612Z,4.77
2019-03-30T03:15:36.075Z,4.74
2019-03-30T03:18:04.489Z,4.72
2019-03-30T03:20:33.825Z,4.69
2019-03-30T03:23:02.335Z,4.64
2019-03-30T03:25:31.656Z,4.63
2019-03-30T03:28:00.139Z,4.63
2019-03-30T03:30:28.971Z,4.62
2019-03-30T03:32:57.450Z,4.61
2019-03-30T03:35:25.985Z,4.61
2019-03-30T03:37:54.420Z,4.56
2019-03-30T03:40:22.798Z,4.51
2019-03-30T03:42:51.257Z,4.49
2019-03-30T03:45:19.700Z,4.48
2019-03-30T03:47:48.081Z,4.44
2019-03-30T03:50:43.643Z,4.40
2019-03-30T03:53:13.332Z,4.38
2019-03-30T03:55:41.888Z,4.35
2019-03-30T03:58:11.680Z,4.32
2019-03-30T04:00:41.077Z,4.30
2019-03-30T04:03:30.894Z,4.27
2019-03-30T04:06:01.171Z,4.24
2019-03-30T04:08:31.669Z,4.18
2019-03-30T04:11:00.773Z,4.17
2019-03-30T04:13:30.121Z,4.15
2019-03-30T04:15:58.644Z,4.13
2019-03-30T04:18:27.218Z,4.11
2019-03-30T04:20:55.581Z,4.09
2019-03-30T04:23:23.965Z,4.08
2019-03-30T04:25:52.281Z,4.06
2019-03-30T04:28:20.649Z,4.00
2019-03-30T04:30:49.091Z,3.94
2019-03-30T04:33:17.574Z,3.93
2019-03-30T04:35:46.033Z,3.93
2019-03-30T04:38:14.758Z,3.91
2019-03-30T04:40:43.346Z,3.90
2019-03-30T04:43:11.801Z,3.85
2019-03-30T04:45:40.115Z,3.84
2019-03-30T04:48:09.400Z,3.85
2019-03-30T04:50:37.729Z,3.82
2019-03-30T04:53:06.129Z,3.83
2019-03-30T04:55:34.545Z,3.82
2019-03-30T04:58:02.913Z,3.81
2019-03-30T05:00:31.440Z,3.81
2019-03-30T05:03:00.620Z,3.81
2019-03-30T05:05:31.604Z,3.79
2019-03-30T05:08:00.389Z,3.79
2019-03-30T05:10:28.724Z,3.79
2019-03-30T05:12:57.257Z,3.76
2019-03-30T05:15:26.520Z,3.74
2019-03-30T05:17:55.092Z,3.70
2019-03-30T05:20:23.628Z,3.68
2019-03-30T05:22:52.078Z,3.71
2019-03-30T05:25:20.372Z,3.71
2019-03-30T05:27:48.918Z,3.72
2019-03-30T05:30:17.431Z,3.74
2019-03-30T05:32:45.889Z,3.76
2019-03-30T05:35:14.393Z,3.78
2019-03-30T05:37:42.909Z,3.77
2019-03-30T05:40:11.621Z,3.79
2019-03-30T05:42:40.365Z,3.80
2019-03-30T05:45:08.937Z,3.79
2019-03-30T05:47:37.480Z,3.81
2019-03-30T05:50:06.262Z,3.83
2019-03-30T05:52:35.786Z,3.85
2019-03-30T05:55:05.325Z,3.89
2019-03-30T05:57:33.777Z,3.92
2019-03-30T06:00:02.468Z,3.94
2019-03-30T06:02:31.540Z,3.97
2019-03-30T06:05:03.077Z,3.97
2019-03-30T06:07:30.258Z,4.01
2019-03-30T06:09:58.853Z,4.05
2019-03-30T06:12:27.475Z,4.05
2019-03-30T06:14:55.891Z,3.98
2019-03-30T06:17:24.400Z,4.04
2019-03-30T06:19:52.794Z,4.10
2019-03-30T06:22:21.729Z,4.12
2019-03-30T06:24:50.183Z,4.19
2019-03-30T06:27:18.615Z,4.28
2019-03-30T06:30:13.931Z,4.33
2019-03-30T06:32:42.499Z,4.41
2019-03-30T06:35:11.052Z,4.49
2019-03-30T06:37:39.763Z,4.54
2019-03-30T06:40:09.134Z,4.59
2019-03-30T06:42:37.570Z,4.73
2019-03-30T06:45:06.212Z,4.81
2019-03-30T06:47:34.701Z,4.91
2019-03-30T06:50:03.386Z,5.00
2019-03-30T06:52:32.528Z,5.12
2019-03-30T06:55:01.981Z,5.24
2019-03-30T06:57:30.390Z,5.30
2019-03-30T06:59:59.060Z,5.38
2019-03-30T07:02:27.863Z,5.47
2019-03-30T07:04:56.747Z,5.60
2019-03-30T07:07:25.819Z,5.77
2019-03-30T07:09:56.125Z,5.89
2019-03-30T07:12:25.319Z,6.08
2019-03-30T07:14:57.827Z,6.19
2019-03-30T07:17:26.812Z,6.30
2019-03-30T07:19:55.392Z,6.55
2019-03-30T07:22:23.713Z,6.74
2019-03-30T07:24:52.182Z,6.83
2019-03-30T07:27:20.592Z,6.96
2019-03-30T07:29:49.168Z,7.04
2019-03-30T07:32:17.582Z,7.12
2019-03-30T07:34:46.087Z,7.21
2019-03-30T07:37:14.406Z,7.38
2019-03-30T07:39:42.763Z,7.52
2019-03-30T07:42:11.305Z,7.62
2019-03-30T07:44:40.299Z,7.72
2019-03-30T07:47:08.650Z,7.78
2019-03-30T07:49:37.040Z,7.91
2019-03-30T07:52:05.466Z,8.07
2019-03-30T07:54:33.869Z,8.19
2019-03-30T07:57:06.298Z,8.43
2019-03-30T07:59:32.658Z,8.76
2019-03-30T08:02:01.141Z,9.00
2019-03-30T08:04:29.438Z,9.36
2019-03-30T08:06:57.782Z,9.54
2019-03-30T08:09:26.237Z,9.56
2019-03-30T08:11:54.711Z,9.73
2019-03-30T08:14:23.101Z,9.95
2019-03-30T08:16:51.607Z,10.22
2019-03-30T08:19:21.799Z,10.32
2019-03-30T08:21:50.312Z,10.44
2019-03-30T08:24:19.432Z,10.57
2019-03-30T08:26:47.889Z,10.71
2019-03-30T08:29:16.198Z,11.02
2019-03-30T08:31:44.691Z,11.19
2019-03-30T08:34:13.803Z,11.22
2019-03-30T08:36:42.463Z,11.35
2019-03-30T08:39:10.848Z,11.56
2019-03-30T08:41:39.840Z,11.65
2019-03-30T08:44:10.716Z,11.79
2019-03-30T08:46:39.286Z,11.96
2019-03-30T08:49:07.627Z,12.13
2019-03-30T08:51:35.982Z,12.48
2019-03-30T08:54:04.400Z,12.74
2019-03-30T08:56:32.964Z,12.75
2019-03-30T08:59:01.383Z,12.83
2019-03-30T09:01:30.968Z,12.95
2019-03-30T09:03:59.357Z,13.04
2019-03-30T09:06:27.870Z,13.25
2019-03-30T09:08:56.290Z,13.41
2019-03-30T09:11:24.766Z,13.54
2019-03-30T09:13:53.096Z,13.64
2019-03-30T09:16:21.537Z,13.75
2019-03-30T09:18:51.073Z,13.95
2019-03-30T09:21:19.529Z,14.12
2019-03-30T09:23:48.002Z,14.15
2019-03-30T09:26:16.883Z,14.27
2019-03-30T09:28:45.510Z,14.47
2019-03-30T09:31:13.904Z,14.47
2019-03-30T09:33:42.330Z,14.60
2019-03-30T09:36:10.937Z,14.77
2019-03-30T09:38:39.216Z,14.77
2019-03-30T09:41:07.500Z,14.84
2019-03-30T09:43:37.492Z,14.90
2019-03-30T09:46:07.564Z,14.90
2019-03-30T09:48:36.942Z,15.03
2019-03-30T09:51:05.921Z,15.03
2019-03-30T09:53:34.587Z,15.16
2019-03-30T09:56:03.099Z,15.26
2019-03-30T09:58:31.680Z,15.44
2019-03-30T10:01:00.814Z,15.59
2019-03-30T10:03:29.295Z,15.83
2019-03-30T10:05:57.791Z,15.83
2019-03-30T10:08:26.337Z,16.17
2019-03-30T10:10:55.062Z,16.17
2019-03-30T10:13:24.229Z,16.61
2019-03-30T10:15:52.711Z,16.61
2019-03-30T10:18:21.182Z,16.66
2019-03-30T10:20:49.537Z,16.98
2019-03-30T10:23:18.023Z,17.15
2019-03-30T10:25:46.332Z,17.21
2019-03-30T10:28:14.920Z,17.47
2019-03-30T10:30:43.457Z,17.60
2019-03-30T10:33:11.854Z,17.60
2019-03-30T10:35:40.283Z,17.82
2019-03-30T10:38:08.651Z,17.97
2019-03-30T10:40:36.930Z,18.01
2019-03-30T10:43:05.501Z,18.15
2019-03-30T10:45:33.906Z,18.16
2019-03-30T10:48:02.440Z,18.05
2019-03-30T10:50:30.784Z,17.90
2019-03-30T10:52:59.205Z,17.99
2019-03-30T10:55:28.114Z,18.28
2019-03-30T10:57:58.597Z,18.35
2019-03-30T11:00:52.077Z,18.20
2019-03-30T11:03:20.448Z,18.20
2019-03-30T11:05:49.015Z,18.32
2019-03-30T11:08:17.512Z,18.30
2019-03-30T11:10:45.968Z,18.36
2019-03-30T11:13:15.007Z,18.32
2019-03-30T11:15:43.481Z,18.40
2019-03-30T11:18:12.068Z,18.63
2019-03-30T11:20:40.587Z,18.96
2019-03-30T11:23:09.022Z,19.04
2019-03-30T11:25:37.827Z,18.88
2019-03-30T11:28:06.455Z,18.94
2019-03-30T11:30:35.171Z,19.11
2019-03-30T11:33:03.653Z,19.31
2019-03-30T11:35:32.048Z,19.25
2019-03-30T11:38:00.565Z,19.37
2019-03-30T11:40:29.057Z,19.52
2019-03-30T11:42:57.442Z,19.39
2019-03-30T11:45:25.973Z,19.40
2019-03-30T11:47:54.978Z,19.80
2019-03-30T11:50:23.361Z,20.20
2019-03-30T11:52:52.667Z,20.58
2019-03-30T11:55:22.547Z,20.86
2019-03-30T11:57:51.123Z,20.91
2019-03-30T12:00:19.773Z,20.77
2019-03-30T12:02:48.189Z,20.79
2019-03-30T12:05:16.665Z,20.84
2019-03-30T12:07:46.429Z,20.93
2019-03-30T12:10:15.009Z,21.02
2019-03-30T12:12:43.412Z,21.02
2019-03-30T12:15:12.205Z,21.22
2019-03-30T12:17:41.246Z,21.31
2019-03-30T12:20:10.196Z,21.46
2019-03-30T12:22:38.932Z,21.60
2019-03-30T12:25:08.274Z,21.60
2019-03-30T12:27:36.546Z,21.38
2019-03-30T12:30:05.321Z,21.36
2019-03-30T12:32:33.745Z,21.40
2019-03-30T12:35:03.002Z,21.57
2019-03-30T12:37:31.299Z,21.70
2019-03-30T12:39:59.769Z,21.79
2019-03-30T12:42:28.215Z,21.79
2019-03-30T12:44:56.517Z,21.67
2019-03-30T12:47:24.950Z,21.58
2019-03-30T12:49:53.275Z,21.73
2019-03-30T12:52:22.279Z,21.69
2019-03-30T12:54:50.567Z,21.71
2019-03-30T12:57:18.999Z,21.67
2019-03-30T12:59:48.000Z,21.67
2019-03-30T13:02:16.370Z,21.68
2019-03-30T13:04:44.741Z,21.83
2019-03-30T13:07:13.281Z,21.88
2019-03-30T13:09:41.689Z,22.21
2019-03-30T13:12:10.124Z,22.42
2019-03-30T13:14:38.576Z,22.24
2019-03-30T13:17:07.047Z,22.43
2019-03-30T13:19:38.453Z,22.48
2019-03-30T13:22:06.865Z,22.59
2019-03-30T13:24:35.247Z,22.46
2019-03-30T13:27:04.387Z,22.62
2019-03-30T13:29:35.649Z,22.36
2019-03-30T13:32:04.076Z,22.41
2019-03-30T13:34:32.357Z,22.64
2019-03-30T13:37:09.343Z,22.46
2019-03-30T13:39:37.758Z,22.61
2019-03-30T13:42:06.099Z,22.69
2019-03-30T13:44:34.400Z,22.65
2019-03-30T13:47:02.886Z,22.94
2019-03-30T13:49:31.163Z,22.95
2019-03-30T13:52:00.099Z,23.16
2019-03-30T13:54:28.485Z,23.12
2019-03-30T13:56:56.799Z,23.16
2019-03-30T13:59:25.056Z,23.17
2019-03-30T14:01:53.649Z,23.37
2019-03-30T14:04:22.106Z,23.45
2019-03-30T14:06:50.442Z,23.45
2019-03-30T14:09:18.789Z,23.63
2019-03-30T14:11:47.174Z,23.57
2019-03-30T14:14:15.513Z,23.58
2019-03-30T14:16:44.593Z,23.25
2019-03-30T14:19:12.947Z,23.42
2019-03-30T14:21:41.337Z,23.61
2019-03-30T14:24:09.694Z,23.69
2019-03-30T14:26:38.090Z,23.64
2019-03-30T14:29:06.430Z,23.71
2019-03-30T14:31:34.694Z,23.56
2019-03-30T14:34:04.046Z,23.60
2019-03-30T14:36:32.330Z,23.71
2019-03-30T14:39:00.672Z,23.41
2019-03-30T14:41:28.962Z,23.60
2019-03-30T14:43:57.273Z,23.63
2019-03-30T14:46:25.786Z,23.66
2019-03-30T14:48:54.948Z,23.59
2019-03-30T14:51:23.214Z,23.72
2019-03-30T14:53:51.657Z,23.93
2019-03-30T14:56:20.030Z,24.06
2019-03-30T14:58:48.334Z,24.08
2019-03-30T15:01:16.695Z,24.17
2019-03-30T15:03:45.110Z,24.24
2019-03-30T15:06:14.111Z,23.97
2019-03-30T15:08:43.224Z,23.82
2019-03-30T15:11:11.984Z,24.03
2019-03-30T15:13:40.409Z,24.08
2019-03-30T15:16:08.814Z,23.78
2019-03-30T15:18:37.133Z,23.74
2019-03-30T15:21:08.537Z,23.66
2019-03-30T15:23:36.589Z,23.74
2019-03-30T15:26:04.964Z,23.73
2019-03-30T15:28:33.362Z,23.77
2019-03-30T15:31:01.622Z,23.60
2019-03-30T15:33:30.165Z,23.69
2019-03-30T15:35:58.412Z,23.56
2019-03-30T15:38:27.027Z,23.32
2019-03-30T15:40:55.912Z,23.16
2019-03-30T15:43:37.479Z,23.02
2019-03-30T15:45:55.768Z,22.93
2019-03-30T15:48:24.097Z,23.14
2019-03-30T15:50:52.590Z,23.33
2019-03-30T15:53:20.859Z,23.39
2019-03-30T15:55:49.381Z,23.44
2019-03-30T15:58:17.779Z,23.48
2019-03-30T16:00:46.309Z,23.21
2019-03-30T16:03:14.803Z,23.21
2019-03-30T16:05:43.234Z,23.03
2019-03-30T16:08:11.868Z,22.99
2019-03-30T16:10:40.312Z,22.94
2019-03-30T16:13:08.710Z,22.91
2019-03-30T16:15:37.081Z,22.79
2019-03-30T16:18:05.619Z,22.61
2019-03-30T16:20:33.985Z,22.67
2019-03-30T16:23:02.881Z,22.71
2019-03-30T16:25:31.441Z,22.56
2019-03-30T16:28:00.237Z,22.46
2019-03-30T16:30:28.675Z,22.43
2019-03-30T16:32:57.167Z,22.44
2019-03-30T16:35:25.693Z,22.35
2019-03-30T16:37:53.978Z,22.23
2019-03-30T16:40:22.404Z,22.11
2019-03-30T16:42:50.720Z,22.12
2019-03-30T16:45:19.065Z,22.10
2019-03-30T16:47:47.463Z,22.14
2019-03-30T16:50:16.066Z,22.16
2019-03-30T16:52:44.360Z,22.17
2019-03-30T16:55:12.866Z,22.09
2019-03-30T16:57:43.885Z,22.10
2019-03-30T17:00:12.102Z,22.08
2019-03-30T17:02:40.575Z,22.02
2019-03-30T17:05:09.925Z,22.00
2019-03-30T17:07:38.341Z,21.98
2019-03-30T17:10:07.529Z,22.00
2019-03-30T17:12:35.787Z,21.94
2019-03-30T17:15:04.523Z,21.89
2019-03-30T17:17:34.029Z,21.85
2019-03-30T17:20:02.894Z,21.83
2019-03-30T17:22:32.505Z,21.79
2019-03-30T17:25:01.150Z,21.74
2019-03-30T17:27:29.524Z,21.68
2019-03-30T17:29:57.852Z,21.67
2019-03-30T17:32:26.281Z,21.63
2019-03-30T17:34:54.796Z,21.61
2019-03-30T17:37:23.301Z,21.56
2019-03-30T17:39:51.716Z,21.50
2019-03-30T17:42:20.233Z,21.45
2019-03-30T17:44:48.649Z,21.40
2019-03-30T17:47:17.137Z,21.36
2019-03-30T17:49:46.478Z,21.25
2019-03-30T17:52:14.833Z,21.12
2019-03-30T17:54:43.139Z,21.01
2019-03-30T17:57:11.617Z,20.97
2019-03-30T17:59:40.141Z,20.96
2019-03-30T18:02:08.879Z,20.90
2019-03-30T18:04:39.032Z,20.81
2019-03-30T18:07:07.699Z,20.75
2019-03-30T18:09:36.237Z,20.72
2019-03-30T18:12:04.668Z,20.66
2019-03-30T18:14:32.955Z,20.59
2019-03-30T18:17:01.384Z,20.36
2019-03-30T18:19:29.781Z,20.23
2019-03-30T18:21:58.525Z,20.07
2019-03-30T18:24:27.048Z,20.04
2019-03-30T18:26:55.405Z,20.05
2019-03-30T18:29:24.079Z,20.03
2019-03-30T18:31:52.658Z,20.02
2019-03-30T18:34:27.467Z,20.02
2019-03-30T18:36:56.169Z,20.01
2019-03-30T18:39:24.693Z,19.98
2019-03-30T18:41:53.153Z,19.63
2019-03-30T18:44:21.684Z,19.25
2019-03-30T18:46:50.226Z,19.00
2019-03-30T18:49:19.238Z,18.71
2019-03-30T18:51:48.851Z,18.49
2019-03-30T18:54:17.771Z,18.29
2019-03-30T18:56:46.962Z,18.11
2019-03-30T18:59:15.420Z,17.94
2019-03-30T19:01:43.726Z,17.83
2019-03-30T19:04:12.613Z,17.70
2019-03-30T19:06:40.932Z,17.62
2019-03-30T19:09:09.804Z,17.53
2019-03-30T19:11:38.157Z,17.46
2019-03-30T19:14:06.637Z,17.35
2019-03-30T19:16:35.137Z,17.22
2019-03-30T19:19:04.585Z,17.08
2019-03-30T19:21:32.922Z,17.02
2019-03-30T19:24:01.425Z,16.93
2019-03-30T19:26:29.755Z,16.88
2019-03-30T19:28:58.191Z,16.80
2019-03-30T19:31:27.032Z,16.76
2019-03-30T19:33:56.223Z,16.65
2019-03-30T19:36:32.437Z,16.50
2019-03-30T19:39:01.371Z,16.36
2019-03-30T19:41:29.715Z,16.18
2019-03-30T19:43:58.080Z,16.05
2019-03-30T19:46:26.911Z,15.93
2019-03-30T19:48:55.512Z,15.88
2019-03-30T19:51:23.904Z,15.83
2019-03-30T19:53:52.521Z,15.78
2019-03-30T19:56:21.454Z,15.68
2019-03-30T19:58:50.063Z,15.57
2019-03-30T20:01:18.563Z,15.51
2019-03-30T20:03:47.074Z,15.42
2019-03-30T20:06:15.580Z,15.31
2019-03-30T20:08:44.152Z,15.22
2019-03-30T20:11:12.654Z,15.14
2019-03-30T20:13:41.029Z,15.09
2019-03-30T20:16:09.510Z,15.04
2019-03-30T20:18:38.002Z,14.99
2019-03-30T20:21:06.545Z,14.92
2019-03-30T20:23:34.942Z,14.89
2019-03-30T20:26:03.430Z,14.81
2019-03-30T20:28:31.886Z,14.68
2019-03-30T20:31:00.330Z,14.62
2019-03-30T20:33:29.452Z,14.55
2019-03-30T20:35:57.826Z,14.44
2019-03-30T20:38:28.869Z,14.34
2019-03-30T20:40:57.486Z,14.25
2019-03-30T20:43:25.899Z,14.22
2019-03-30T20:45:54.294Z,14.15
2019-03-30T20:48:22.611Z,14.05
2019-03-30T20:50:50.966Z,13.96
2019-03-30T20:53:19.292Z,13.92
2019-03-30T20:55:47.730Z,13.84
2019-03-30T20:58:16.156Z,13.76
2019-03-30T21:00:44.622Z,13.68
2019-03-30T21:03:12.966Z,13.64
2019-03-30T21:05:41.548Z,13.58
2019-03-30T21:08:09.859Z,13.58
2019-03-30T21:10:38.237Z,13.56
2019-03-30T21:13:06.557Z,13.55
2019-03-30T21:15:34.994Z,13.53
2019-03-30T21:18:03.508Z,13.48
2019-03-30T21:20:32.060Z,13.48
2019-03-30T21:23:01.015Z,13.41
2019-03-30T21:25:29.399Z,13.35
2019-03-30T21:27:57.856Z,13.32
2019-03-30T21:30:26.899Z,13.28
2019-03-30T21:32:55.348Z,13.25
2019-03-30T21:35:24.761Z,13.20
2019-03-30T21:37:53.171Z,13.16
2019-03-30T21:40:21.714Z,13.11
2019-03-30T21:42:50.047Z,13.07
2019-03-30T21:45:18.615Z,13.02
2019-03-30T21:47:46.943Z,12.95
2019-03-30T21:50:15.538Z,12.91
2019-03-30T21:52:44.041Z,12.84
2019-03-30T21:55:12.568Z,12.78
2019-03-30T21:57:41.031Z,12.64
2019-03-30T22:00:11.014Z,12.56
2019-03-30T22:02:39.974Z,12.56
2019-03-30T22:05:08.758Z,12.53
2019-03-30T22:07:37.527Z,12.46
2019-03-30T22:10:07.451Z,12.46
2019-03-30T22:12:42.160Z,12.40
2019-03-30T22:15:12.534Z,12.30
2019-03-30T22:17:40.999Z,12.30
2019-03-30T22:20:09.413Z,12.31
2019-03-30T22:22:37.924Z,12.26
2019-03-30T22:25:06.484Z,12.23
2019-03-30T22:27:34.937Z,12.19
2019-03-30T22:30:03.498Z,12.14
2019-03-30T22:32:32.023Z,12.11
2019-03-30T22:35:00.584Z,12.07
2019-03-30T22:37:28.993Z,12.07
2019-03-30T22:39:57.304Z,11.94
2019-03-30T22:42:25.789Z,11.94
2019-03-30T22:44:54.107Z,11.93
2019-03-30T22:47:22.578Z,11.89
2019-03-30T22:49:51.064Z,11.79
2019-03-30T22:52:20.480Z,11.77
2019-03-30T22:54:49.627Z,11.77
2019-03-30T22:57:18.137Z,11.77
2019-03-30T22:59:46.567Z,11.77
2019-03-30T23:02:15.097Z,11.78
2019-03-30T23:04:43.343Z,11.78
2019-03-30T23:07:11.618Z,11.74
2019-03-30T23:09:39.994Z,11.64
2019-03-30T23:12:08.341Z,11.64
2019-03-30T23:14:38.780Z,11.64
2019-03-30T23:17:07.375Z,11.52
2019-03-30T23:19:35.744Z,11.46
2019-03-30T23:22:04.956Z,11.46
2019-03-30T23:24:33.210Z,11.39
2019-03-30T23:27:01.502Z,11.39
2019-03-30T23:29:29.822Z,11.35
2019-03-30T23:31:58.038Z,11.25
2019-03-30T23:34:26.360Z,11.22
2019-03-30T23:36:54.625Z,11.15
2019-03-30T23:39:23.119Z,11.15
2019-03-30T23:41:51.444Z,11.09
2019-03-30T23:44:20.481Z,11.02
2019-03-30T23:46:48.754Z,11.02
2019-03-30T23:49:18.235Z,10.93
2019-03-30T23:51:49.617Z,10.93
2019-03-30T23:54:18.142Z,10.90
2019-03-30T23:56:46.413Z,10.86
2019-03-30T23:59:15.157Z,10.83
